createdAt,value
2019-04-03T00:04:28.116Z,1.47
2019-04-03T00:09:27.015Z,1.33
2019-04-03T00:14:35.875Z,1.25
2019-04-03T00:19:45.783Z,1.22
2019-04-03T00:24:53.145Z,1.46
2019-04-03T00:30:02.016Z,1.34
2019-04-03T00:35:10.834Z,1.36
2019-04-03T00:40:19.725Z,1.14
2019-04-03T00:45:28.542Z,1.57
2019-04-03T00:50:37.517Z,1.58
2019-04-03T00:55:46.290Z,1.56
2019-04-03T01:00:56.251Z,1.43
2019-04-03T01:06:03.597Z,1.41
2019-04-03T01:11:12.439Z,1.41
2019-04-03T01:16:21.310Z,1.31
2019-04-03T01:21:32.587Z,1.21
2019-04-03T01:26:31.402Z,1.31
2019-04-03T01:31:40.448Z,1.31
2019-04-03T01:36:49.209Z,1.31
2019-04-03T01:41:57.970Z,1.51
2019-04-03T01:47:06.875Z,1.36
2019-04-03T01:52:15.774Z,1.54
2019-04-03T01:57:24.590Z,1.51
2019-04-03T02:02:33.469Z,1.26
2019-04-03T02:07:44.248Z,1.46
2019-04-03T02:12:51.508Z,1.67
2019-04-03T02:17:59.165Z,1.69
2019-04-03T02:23:08.228Z,1.76
2019-04-03T02:28:16.927Z,1.58
2019-04-03T02:33:28.613Z,1.57
2019-04-03T02:38:34.246Z,1.25
2019-04-03T02:43:45.454Z,1.17
2019-04-03T02:48:51.537Z,1.30
2019-04-03T02:54:02.386Z,1.13
2019-04-03T02:59:09.158Z,1.35
2019-04-03T03:04:20.430Z,1.21
2019-04-03T03:09:26.551Z,1.56
2019-04-03T03:14:39.318Z,1.36
2019-04-03T03:19:35.921Z,1.24
2019-04-03T03:24:45.103Z,1.38
2019-04-03T03:29:53.783Z,1.31
2019-04-03T03:35:12.611Z,1.34
2019-04-03T03:40:11.016Z,1.43
2019-04-03T03:45:20.740Z,1.27
2019-04-03T03:50:28.291Z,1.36
2019-04-03T03:55:37.158Z,1.44
2019-04-03T04:00:51.159Z,1.33
2019-04-03T04:05:56.027Z,1.47
2019-04-03T04:11:02.727Z,1.25
2019-04-03T04:16:11.657Z,1.35
2019-04-03T04:21:20.377Z,1.26
2019-04-03T04:26:29.836Z,1.27
2019-04-03T04:31:37.643Z,1.41
2019-04-03T04:36:46.711Z,1.29
2019-04-03T04:41:55.406Z,1.37
2019-04-03T04:47:04.295Z,1.33
2019-04-03T04:52:13.193Z,1.35
2019-04-03T04:57:22.066Z,1.44
2019-04-03T05:02:30.908Z,1.43
2019-04-03T05:07:40.307Z,1.35
2019-04-03T05:12:49.214Z,1.18
2019-04-03T05:17:59.006Z,1.30
2019-04-03T05:23:07.743Z,1.12
2019-04-03T05:28:16.649Z,1.08
2019-04-03T05:33:26.439Z,1.25
2019-04-03T05:38:33.834Z,1.56
2019-04-03T05:43:42.699Z,1.41
2019-04-03T05:48:50.517Z,1.46
2019-04-03T05:53:59.426Z,1.47
2019-04-03T05:59:08.281Z,1.42
2019-04-03T06:04:18.599Z,1.56
2019-04-03T06:09:26.994Z,1.52
2019-04-03T06:14:35.859Z,1.47
2019-04-03T06:20:02.188Z,1.50
2019-04-03T06:24:52.266Z,1.82
2019-04-03T06:29:59.087Z,1.55
2019-04-03T06:35:07.980Z,1.38
2019-04-03T06:40:16.891Z,1.67
2019-04-03T06:45:25.985Z,1.50
2019-04-03T06:50:34.136Z,1.39
2019-04-03T06:55:45.385Z,1.38
2019-04-03T07:00:47.664Z,1.36
2019-04-03T07:05:45.187Z,2.12
2019-04-03T07:10:55.478Z,1.48
2019-04-03T07:16:03.468Z,1.76
2019-04-03T07:21:12.683Z,2.76
2019-04-03T07:26:22.821Z,2.99
2019-04-03T07:31:23.615Z,3.03
2019-04-03T07:36:32.233Z,1.84
2019-04-03T07:41:30.956Z,1.60
2019-04-03T07:46:38.367Z,1.43
2019-04-03T07:51:48.129Z,1.44
2019-04-03T07:56:58.189Z,1.51
2019-04-03T08:02:06.915Z,1.74
2019-04-03T08:07:15.798Z,2.32
2019-04-03T08:12:40.008Z,1.37
2019-04-03T08:17:28.797Z,1.36
2019-04-03T08:22:38.048Z,1.30
2019-04-03T08:27:46.160Z,1.15
2019-04-03T08:32:59.632Z,0.97
2019-04-03T08:37:58.467Z,1.12
2019-04-03T08:43:07.393Z,0.92
2019-04-03T08:48:17.562Z,0.96
2019-04-03T08:53:25.399Z,0.83
2019-04-03T08:58:32.892Z,1.10
2019-04-03T09:03:40.328Z,1.08
2019-04-03T09:08:49.152Z,1.09
2019-04-03T09:19:05.391Z,1.33
2019-04-03T09:24:15.921Z,1.04
2019-04-03T09:29:13.767Z,1.11
2019-04-03T09:34:21.065Z,1.26
2019-04-03T09:39:30.535Z,1.06
2019-04-03T09:44:30.238Z,1.31
2019-04-03T09:49:40.542Z,0.97
2019-04-03T09:54:45.763Z,0.77
2019-04-03T09:59:54.803Z,0.71
2019-04-03T10:05:03.578Z,0.61
2019-04-03T10:10:14.003Z,0.62
2019-04-03T10:15:21.431Z,0.51
2019-04-03T10:20:30.214Z,0.90
2019-04-03T10:25:39.511Z,0.81
2019-04-03T10:30:48.533Z,0.79
2019-04-03T10:35:59.437Z,0.73
2019-04-03T10:41:06.179Z,0.62
2019-04-03T10:46:16.288Z,0.52
2019-04-03T10:51:23.697Z,0.66
2019-04-03T10:56:35.343Z,0.68
2019-04-03T11:01:34.903Z,0.66
2019-04-03T11:06:44.819Z,0.47
2019-04-03T11:11:54.362Z,0.54
2019-04-03T11:17:03.258Z,0.51
2019-04-03T11:22:13.702Z,0.51
2019-04-03T11:27:22.985Z,0.57
2019-04-03T11:32:29.567Z,0.91
2019-04-03T11:37:38.506Z,1.03
2019-04-03T11:42:47.399Z,0.78
2019-04-03T11:47:56.314Z,0.60
2019-04-03T11:53:07.526Z,0.57
2019-04-03T11:58:13.606Z,0.54
2019-04-03T12:03:24.237Z,0.49
2019-04-03T12:08:23.301Z,0.66
2019-04-03T12:13:32.394Z,0.61
2019-04-03T12:18:44.338Z,0.58
2019-04-03T12:23:43.304Z,0.50
2019-04-03T12:28:52.628Z,0.59
2019-04-03T12:34:05.161Z,0.69
2019-04-03T12:39:09.851Z,0.57
2019-04-03T12:44:19.317Z,0.33
2019-04-03T12:49:27.258Z,0.55
2019-04-03T12:54:36.612Z,0.73
2019-04-03T12:59:46.717Z,0.83
2019-04-03T13:04:54.871Z,0.67
2019-04-03T13:09:52.468Z,0.64
2019-04-03T13:15:03.576Z,0.82
2019-04-03T13:20:10.164Z,0.80
2019-04-03T13:25:20.991Z,1.45
2019-04-03T13:30:27.915Z,1.35
2019-04-03T13:35:36.913Z,1.61
2019-04-03T13:40:46.097Z,0.78
2019-04-03T13:45:55.748Z,0.77
2019-04-03T13:51:04.090Z,1.12
2019-04-03T13:56:13.038Z,1.00
2019-04-03T14:01:21.911Z,1.09
2019-04-03T14:06:31.230Z,1.39
2019-04-03T14:11:40.178Z,1.07
2019-04-03T14:16:49.295Z,0.56
2019-04-03T14:22:00.001Z,0.86
2019-04-03T14:27:17.371Z,0.81
2019-04-03T14:32:24.745Z,0.67
2019-04-03T14:37:25.495Z,0.88
2019-04-03T14:42:30.911Z,0.76
2019-04-03T14:47:40.778Z,0.77
2019-04-03T14:52:50.090Z,0.88
2019-04-03T14:57:58.139Z,0.89
2019-04-03T15:03:07.036Z,0.73
2019-04-03T15:08:16.051Z,1.47
2019-04-03T15:13:25.366Z,0.67
2019-04-03T15:18:35.647Z,0.74
2019-04-03T15:23:40.426Z,0.62
2019-04-03T15:28:36.094Z,0.54
2019-04-03T15:33:44.603Z,0.61
2019-04-03T15:38:53.245Z,0.52
2019-04-03T15:44:02.083Z,0.49
2019-04-03T15:49:11.114Z,0.47
2019-04-03T15:54:21.339Z,0.92
2019-04-03T15:59:30.757Z,0.38
2019-04-03T16:04:38.208Z,1.11
2019-04-03T16:09:52.496Z,0.55
2019-04-03T16:14:51.908Z,0.47
2019-04-03T16:20:03.478Z,0.79
2019-04-03T16:25:02.587Z,3.82
2019-04-03T16:30:14.121Z,4.39
2019-04-03T16:35:19.905Z,0.75
2019-04-03T16:40:30.999Z,0.74
2019-04-03T16:45:38.680Z,0.87
2019-04-03T16:50:45.725Z,0.80
2019-04-03T16:55:55.679Z,0.85
2019-04-03T17:01:05.787Z,1.15
2019-04-03T17:06:04.794Z,1.33
2019-04-03T17:11:13.706Z,0.98
2019-04-03T17:16:22.602Z,1.38
2019-04-03T17:21:36.967Z,1.80
2019-04-03T17:26:48.885Z,2.28
2019-04-03T17:31:49.295Z,1.50
2019-04-03T17:36:57.720Z,2.03
2019-04-03T17:42:04.424Z,2.23
2019-04-03T17:47:13.206Z,1.40
2019-04-03T17:52:22.161Z,1.36
2019-04-03T17:57:31.408Z,1.74
2019-04-03T18:02:42.067Z,1.37
2019-04-03T18:07:40.869Z,1.59
2019-04-03T18:12:50.188Z,1.28
2019-04-03T18:17:58.146Z,1.56
2019-04-03T18:23:07.048Z,2.02
2019-04-03T18:28:16.342Z,7.36
2019-04-03T18:33:25.162Z,2.62
2019-04-03T18:38:33.993Z,2.46
2019-04-03T18:43:42.891Z,4.17
2019-04-03T18:48:54.655Z,6.63
2019-04-03T18:59:02.020Z,3.97
2019-04-03T19:04:10.943Z,3.57
2019-04-03T19:09:21.332Z,8.70
2019-04-03T19:14:31.459Z,5.02
2019-04-03T19:19:36.703Z,3.50
2019-04-03T19:24:45.556Z,2.46
2019-04-03T19:29:52.984Z,1.83
2019-04-03T19:35:01.926Z,1.54
2019-04-03T19:40:10.785Z,1.63
2019-04-03T19:45:20.638Z,1.80
2019-04-03T19:50:26.855Z,2.07
2019-04-03T19:55:34.384Z,1.80
2019-04-03T20:00:43.245Z,1.81
2019-04-03T20:05:54.897Z,1.82
2019-04-03T20:11:00.564Z,2.81
2019-04-03T20:16:09.548Z,1.92
2019-04-03T20:21:18.486Z,1.87
2019-04-03T20:26:27.446Z,2.40
2019-04-03T20:31:36.389Z,5.34
2019-04-03T20:36:45.264Z,2.95
2019-04-03T20:41:54.459Z,2.11
2019-04-03T20:47:03.367Z,13.72
2019-04-03T20:52:12.352Z,39.48
2019-04-03T20:57:21.183Z,20.40
2019-04-03T21:02:30.118Z,5.31
2019-04-03T21:07:37.986Z,2.31
2019-04-03T21:12:46.866Z,3.38
2019-04-03T21:17:55.863Z,3.56
2019-04-03T21:23:04.852Z,2.28
2019-04-03T21:28:13.774Z,2.02
2019-04-03T21:33:22.688Z,2.02
2019-04-03T21:38:31.804Z,6.19
2019-04-03T21:43:39.275Z,2.00
2019-04-03T21:48:48.254Z,1.89
2019-04-03T21:53:59.739Z,1.96
2019-04-03T21:58:58.521Z,5.10
2019-04-03T22:04:07.970Z,1.65
2019-04-03T22:09:16.946Z,1.87
2019-04-03T22:14:25.858Z,1.85
2019-04-03T22:19:38.356Z,0.98
2019-04-03T22:24:37.740Z,0.82
2019-04-03T22:29:45.768Z,0.52
2019-04-03T22:34:54.738Z,0.37
2019-04-03T22:40:03.627Z,0.58
2019-04-03T22:45:12.636Z,0.50
2019-04-03T22:50:21.641Z,0.34
2019-04-03T22:55:30.588Z,0.59
2019-04-03T23:00:39.503Z,0.59
2019-04-03T23:05:48.618Z,0.75
2019-04-03T23:10:57.234Z,0.89
2019-04-03T23:16:06.294Z,1.02
2019-04-03T23:21:15.231Z,0.72
2019-04-03T23:26:24.167Z,0.40
2019-04-03T23:31:33.032Z,0.54
2019-04-03T23:36:41.896Z,0.70
2019-04-03T23:41:50.762Z,0.55
2019-04-03T23:46:59.650Z,0.52
2019-04-03T23:52:07.099Z,0.71
2019-04-03T23:57:15.962Z,0.65
